Time;durP1;ratioP1;P1;durP2;ratioP2;P2;SDS_P1;SDS_P2;PMS_P1;PMS_P2;Temp;Humidity;BMP_temperature;BMP_pressure;BME280_temperature;BME280_humidity;BME280_pressure;Samples;Min_cycle;Max_cycle;Signal;HPM_P1;HPM_P2
2022/11/14 00:02:08;;;;;;;23.90;19.20;;;;;;;16.72;45.04;102161.80;101865;1329;61411;-82
2022/11/14 00:04:34;;;;;;;24.90;18.70;;;;;;;16.72;44.99;102160.56;101912;1331;61392;-82
2022/11/14 00:06:59;;;;;;;22.40;17.70;;;;;;;16.71;44.96;102158.99;101868;1336;61320;-82
2022/11/14 00:09:26;;;;;;;25.20;19.60;;;;;;;16.71;45.05;102160.94;101845;1331;61384;-82
2022/11/14 00:11:52;;;;;;;24.80;18.90;;;;;;;16.71;44.93;102162.20;101853;1331;61324;-81
2022/11/14 00:14:17;;;;;;;23.50;18.20;;;;;;;16.71;44.87;102163.24;101953;1329;61288;-81
2022/11/14 00:16:43;;;;;;;20.50;17.80;;;;;;;16.71;44.91;102165.36;101948;1328;72786;-82
2022/11/14 00:19:08;;;;;;;23.50;18.50;;;;;;;16.71;44.93;102163.61;101896;1331;61455;-81
2022/11/14 00:21:34;;;;;;;22.80;18.70;;;;;;;16.71;44.91;102159.88;101903;1336;61293;-81
2022/11/14 00:23:59;;;;;;;22.60;18.00;;;;;;;16.71;44.81;102155.95;101900;1331;61395;-81
2022/11/14 00:26:25;;;;;;;23.70;18.10;;;;;;;16.70;44.83;102154.73;101907;1336;61487;-81
2022/11/14 00:28:50;;;;;;;24.80;19.60;;;;;;;16.71;44.87;102158.65;101869;1331;73523;-82
2022/11/14 00:31:16;;;;;;;25.00;19.40;;;;;;;16.70;44.82;102160.61;101904;1328;61537;-82
2022/11/14 00:33:41;;;;;;;23.10;18.60;;;;;;;16.70;44.72;102161.87;101930;1334;61340;-82
2022/11/14 00:36:07;;;;;;;24.30;18.80;;;;;;;16.70;44.81;102160.98;101894;1330;61288;-82
2022/11/14 00:38:32;;;;;;;25.30;18.80;;;;;;;16.69;44.78;102158.70;101898;1330;61377;-81
2022/11/14 00:40:58;;;;;;;23.60;18.60;;;;;;;16.69;44.71;102155.67;101949;1335;72101;-82
2022/11/14 00:43:23;;;;;;;22.90;18.80;;;;;;;16.68;44.71;102151.07;101836;1331;61414;-81
2022/11/14 00:45:49;;;;;;;22.00;17.80;;;;;;;16.68;44.73;102152.66;101930;1322;61320;-81
2022/11/14 00:48:15;;;;;;;22.70;18.90;;;;;;;16.69;44.76;102152.30;101916;1332;61263;-82
2022/11/14 00:50:40;;;;;;;24.40;18.60;;;;;;;16.69;44.62;102150.70;101949;1328;61397;-81
2022/11/14 00:53:06;;;;;;;22.80;18.50;;;;;;;16.68;44.71;102154.27;101849;1331;73671;-81
2022/11/14 00:55:31;;;;;;;24.70;18.70;;;;;;;16.67;44.77;102152.52;101859;1335;61349;-81
2022/11/14 00:57:57;;;;;;;25.50;19.20;;;;;;;16.67;44.62;102150.56;101892;1328;61398;-81
2022/11/14 01:00:22;;;;;;;25.30;19.30;;;;;;;16.67;44.65;102151.10;101898;1331;61767;-81
2022/11/14 01:02:48;;;;;;;22.60;18.10;;;;;;;16.67;44.62;102146.69;101975;1328;61270;-81
2022/11/14 01:05:13;;;;;;;24.00;19.20;;;;;;;16.66;44.61;102144.74;101898;1331;73933;-82
2022/11/14 01:07:39;;;;;;;27.30;19.30;;;;;;;16.65;44.64;102141.03;101846;1328;61326;-82
2022/11/14 01:10:05;;;;;;;24.30;18.30;;;;;;;16.64;44.63;102139.46;101923;1328;61405;-82
2022/11/14 01:12:31;;;;;;;25.80;18.90;;;;;;;16.64;44.59;102139.30;101958;1334;61389;-82
2022/11/14 01:14:56;;;;;;;27.50;19.60;;;;;;;16.64;44.63;102139.64;101891;1329;61323;-82
2022/11/14 01:17:22;;;;;;;27.60;20.10;;;;;;;16.65;44.71;102139.28;101953;1322;61356;-82
2022/11/14 01:19:47;;;;;;;27.70;20.60;;;;;;;16.65;44.69;102144.06;101931;1329;59273;-82
2022/11/14 01:22:13;;;;;;;24.10;18.10;;;;;;;16.65;44.66;102141.58;101910;1332;61275;-82
2022/11/14 01:24:38;;;;;;;25.90;19.40;;;;;;;16.65;44.68;102141.75;101950;1332;61777;-81
2022/11/14 01:27:04;;;;;;;28.10;19.10;;;;;;;16.65;44.64;102138.73;101848;1323;61313;-82
2022/11/14 01:29:29;;;;;;;27.10;19.20;;;;;;;16.65;44.60;102134.31;101931;1334;61405;-82
2022/11/14 01:31:55;;;;;;;25.00;18.90;;;;;;;16.64;44.70;102127.05;101909;1330;71859;-82
2022/11/14 01:34:21;;;;;;;26.10;19.60;;;;;;;16.64;44.67;102129.54;101945;1329;60144;-82
2022/11/14 01:36:46;;;;;;;26.10;19.00;;;;;;;16.63;44.61;102121.55;101915;1331;62190;-82
2022/11/14 01:39:12;;;;;;;28.80;20.00;;;;;;;16.63;44.65;102117.48;101910;1331;61336;-82
2022/11/14 01:41:37;;;;;;;27.80;20.40;;;;;;;16.63;44.57;102120.13;101915;1323;61402;-81
2022/11/14 01:44:10;;;;;;;27.40;19.40;;;;;;;16.63;44.62;102121.38;101969;1328;61729;-82
2022/11/14 01:46:38;;;;;;;29.10;19.30;;;;;;;16.62;44.67;102125.48;101941;1328;61223;-82
2022/11/14 01:49:15;;;;;;;28.70;20.40;;;;;;;16.62;44.61;102121.59;101910;1331;60568;-82
2022/11/14 01:52:07;;;;;;;26.00;18.70;;;;;;;16.62;44.70;102121.22;101931;1332;72212;-82
2022/11/14 01:54:36;;;;;;;29.30;20.40;;;;;;;16.61;44.75;102120.38;101856;1331;75804;-82
2022/11/14 01:57:02;;;;;;;26.90;19.60;;;;;;;16.61;44.68;102119.31;101830;1326;61546;-82
2022/11/14 01:59:30;;;;;;;26.70;19.40;;;;;;;16.61;44.62;102118.07;101907;1331;61265;-81
2022/11/14 02:01:56;;;;;;;26.60;19.30;;;;;;;16.61;44.61;102115.21;101925;1324;73601;-81
2022/11/14 02:04:24;;;;;;;27.90;19.10;;;;;;;16.62;44.67;102116.63;101837;1331;61743;-81
2022/11/14 02:06:51;;;;;;;25.40;19.20;;;;;;;16.62;44.63;102113.05;101929;1332;61208;-82
2022/11/14 02:09:16;;;;;;;27.30;19.70;;;;;;;16.61;44.60;102110.23;101915;1328;61216;-82
2022/11/14 02:11:43;;;;;;;29.00;20.00;;;;;;;16.61;44.59;102110.05;101926;1329;61221;-81
2022/11/14 02:14:09;;;;;;;26.00;19.70;;;;;;;16.60;44.48;102109.38;101858;1325;61169;-81
2022/11/14 02:16:35;;;;;;;25.90;19.70;;;;;;;16.60;44.52;102112.58;101863;1332;61414;-81
2022/11/14 02:19:00;;;;;;;25.90;19.40;;;;;;;16.60;44.53;102114.73;101924;1328;61359;-81
2022/11/14 02:21:26;;;;;;;28.80;19.90;;;;;;;16.59;44.59;102116.16;101898;1332;61309;-82
2022/11/14 02:23:51;;;;;;;25.40;19.50;;;;;;;16.61;44.57;102121.63;101892;1331;61295;-81
2022/11/14 02:26:18;;;;;;;25.70;19.50;;;;;;;16.60;44.47;102125.02;101888;1335;75572;-82
2022/11/14 02:28:43;;;;;;;28.20;20.30;;;;;;;16.60;44.50;102122.71;101855;1315;61322;-82
2022/11/14 02:31:09;;;;;;;29.10;19.90;;;;;;;16.59;44.39;102124.87;101911;1330;61318;-82
2022/11/14 02:33:34;;;;;;;24.60;18.90;;;;;;;16.58;44.34;102125.24;101936;1335;61299;-82
2022/11/14 02:36:00;;;;;;;27.00;19.30;;;;;;;16.58;44.40;102124.72;101914;1327;61285;-81
2022/11/14 02:38:25;;;;;;;28.70;20.80;;;;;;;16.57;44.34;102120.65;101956;1331;61339;-82
2022/11/14 02:40:51;;;;;;;26.60;20.40;;;;;;;16.57;44.39;102122.43;101852;1335;61168;-82
2022/11/14 02:43:16;;;;;;;28.00;19.80;;;;;;;16.56;44.38;102122.64;101930;1336;61400;-82
2022/11/14 02:45:42;;;;;;;26.70;19.90;;;;;;;16.56;44.24;102125.33;101890;1329;61765;-81
2022/11/14 02:48:07;;;;;;;27.60;20.10;;;;;;;16.55;44.31;102122.66;101922;1328;61444;-82
2022/11/14 02:50:33;;;;;;;27.40;20.10;;;;;;;16.55;44.29;102124.29;101868;1321;61335;-81
2022/11/14 02:52:58;;;;;;;26.60;20.20;;;;;;;16.54;44.28;102124.66;101905;1331;61194;-81
2022/11/14 02:55:24;;;;;;;27.90;19.50;;;;;;;16.54;44.27;102122.52;101925;1332;61321;-81
2022/11/14 02:57:49;;;;;;;27.30;20.20;;;;;;;16.54;44.21;102119.52;101923;1335;61324;-82
2022/11/14 03:00:16;;;;;;;28.40;20.30;;;;;;;16.54;44.24;102124.85;101844;1328;61410;-82
2022/11/14 03:02:41;;;;;;;26.50;19.50;;;;;;;16.54;44.14;102124.48;101922;1330;61425;-81
2022/11/14 03:05:07;;;;;;;29.90;20.10;;;;;;;16.53;44.06;102126.27;101900;1331;61509;-81
2022/11/14 03:07:32;;;;;;;28.80;20.20;;;;;;;16.53;44.05;102134.65;101753;1334;61211;-81
2022/11/14 03:09:58;;;;;;;29.60;20.50;;;;;;;16.53;44.18;102137.15;101840;1330;61319;-82
2022/11/14 03:12:23;;;;;;;28.70;19.90;;;;;;;16.51;44.14;102139.33;101930;1332;61284;-81
2022/11/14 03:14:49;;;;;;;24.70;19.10;;;;;;;16.52;43.99;102143.05;101915;1329;61378;-81
2022/11/14 03:17:14;;;;;;;27.20;20.40;;;;;;;16.51;44.14;102146.98;101947;1332;61324;-82
2022/11/14 03:19:40;;;;;;;26.60;20.30;;;;;;;16.51;44.14;102152.29;101921;1328;61321;-81
2022/11/14 03:22:05;;;;;;;26.00;20.00;;;;;;;16.51;44.07;102155.88;101927;1334;61333;-83
2022/11/14 03:24:31;;;;;;;29.40;20.00;;;;;;;16.51;44.12;102156.41;101909;1328;61747;-82
2022/11/14 03:26:57;;;;;;;26.40;20.00;;;;;;;16.51;44.01;102154.98;101854;1335;61459;-82
2022/11/14 03:29:22;;;;;;;26.50;19.00;;;;;;;16.49;44.03;102153.25;101905;1332;61342;-81
2022/11/14 03:31:48;;;;;;;24.50;19.30;;;;;;;16.50;44.14;102154.48;101909;1329;61286;-81
2022/11/14 03:34:13;;;;;;;25.60;19.80;;;;;;;16.50;44.07;102153.95;101852;1331;61410;-82
2022/11/14 03:36:39;;;;;;;27.50;19.90;;;;;;;16.49;44.03;102149.70;101832;1331;61361;-82
2022/11/14 03:39:04;;;;;;;28.50;19.00;;;;;;;16.50;44.07;102150.05;101840;1322;61328;-82
2022/11/14 03:41:30;;;;;;;25.60;19.40;;;;;;;16.49;44.05;102146.52;101950;1336;61340;-82
2022/11/14 03:43:56;;;;;;;26.40;19.90;;;;;;;16.49;44.07;102142.41;101823;1333;61058;-82
2022/11/14 03:46:21;;;;;;;25.30;19.40;;;;;;;16.49;43.99;102142.59;101925;1328;61490;-81
2022/11/14 03:48:47;;;;;;;26.30;18.80;;;;;;;16.49;43.93;102143.48;101908;1334;61322;-81
2022/11/14 03:51:12;;;;;;;28.00;19.20;;;;;;;16.49;43.96;102142.60;101915;1329;61296;-82
2022/11/14 03:53:38;;;;;;;27.10;20.00;;;;;;;16.48;44.08;102143.71;101907;1328;61354;-82
2022/11/14 03:56:04;;;;;;;26.90;19.70;;;;;;;16.47;43.98;102145.14;101879;1332;61240;-82
2022/11/14 03:58:29;;;;;;;28.20;19.80;;;;;;;16.48;44.00;102146.19;101914;1328;61377;-82
2022/11/14 04:00:55;;;;;;;26.80;19.40;;;;;;;16.48;43.97;102141.38;101930;1329;61339;-82
2022/11/14 04:03:21;;;;;;;27.70;20.00;;;;;;;16.48;43.92;102146.70;101897;1329;61189;-82
2022/11/14 04:05:47;;;;;;;25.20;19.40;;;;;;;16.48;43.88;102148.48;101963;1320;61356;-82
2022/11/14 04:08:13;;;;;;;27.90;20.40;;;;;;;16.48;43.94;102146.38;101833;1331;61287;-81
2022/11/14 04:10:40;;;;;;;27.30;20.30;;;;;;;16.47;43.97;102144.96;101938;1336;61332;-82
2022/11/14 04:13:05;;;;;;;28.90;20.10;;;;;;;16.47;43.97;102144.96;101884;1331;74379;-82
2022/11/14 04:15:31;;;;;;;27.30;19.90;;;;;;;16.48;43.85;102140.50;101864;1331;61337;-82
2022/11/14 04:17:56;;;;;;;29.50;20.10;;;;;;;16.48;43.88;102146.73;101931;1334;61414;-82
2022/11/14 04:20:22;;;;;;;27.30;20.20;;;;;;;16.47;43.92;102146.01;101896;1330;61394;-82
2022/11/14 04:22:47;;;;;;;27.50;19.30;;;;;;;16.47;43.93;102149.42;101972;1329;61439;-82
2022/11/14 04:25:13;;;;;;;26.90;19.00;;;;;;;16.47;43.91;102152.62;101936;1329;75414;-82
2022/11/14 04:27:38;;;;;;;27.40;19.10;;;;;;;16.47;43.96;102152.97;101929;1328;61285;-82
2022/11/14 04:30:05;;;;;;;27.30;19.80;;;;;;;16.46;43.94;102156.20;101850;1334;61347;-82
2022/11/14 04:32:30;;;;;;;25.10;19.30;;;;;;;16.46;43.91;102155.83;101910;1329;61225;-82
2022/11/14 04:34:56;;;;;;;27.50;19.40;;;;;;;16.46;43.83;102154.41;101884;1335;61333;-81
2022/11/14 04:37:21;;;;;;;27.20;19.00;;;;;;;16.46;43.85;102157.80;101954;1331;61430;-82
2022/11/14 04:39:47;;;;;;;26.70;18.80;;;;;;;16.45;43.91;102154.96;101918;1328;61376;-82
2022/11/14 04:42:12;;;;;;;25.70;19.20;;;;;;;16.46;43.90;102161.36;101921;1334;61289;-82
2022/11/14 04:44:38;;;;;;;26.90;18.70;;;;;;;16.46;43.91;102161.19;101909;1328;61324;-82
2022/11/14 04:47:03;;;;;;;28.10;19.80;;;;;;;16.46;43.81;102165.24;101899;1325;61821;-81
2022/11/14 04:49:29;;;;;;;28.80;20.00;;;;;;;16.47;43.92;102166.48;101916;1329;61453;-81
2022/11/14 04:51:55;;;;;;;26.00;19.30;;;;;;;16.46;44.02;102167.73;101824;1328;61281;-82
2022/11/14 04:54:20;;;;;;;27.10;18.40;;;;;;;16.46;43.97;102170.75;101914;1329;61331;-82
2022/11/14 04:56:48;;;;;;;25.30;18.60;;;;;;;16.47;43.96;102171.63;101914;1332;61373;-83
2022/11/14 04:59:13;;;;;;;29.20;20.10;;;;;;;16.47;43.81;102168.78;101854;1335;61267;-82
2022/11/14 05:01:39;;;;;;;27.10;20.20;;;;;;;16.49;43.82;102176.01;101922;1328;61287;-82
2022/11/14 05:04:04;;;;;;;26.80;20.30;;;;;;;16.50;43.90;102179.88;101919;1330;61304;-81
2022/11/14 05:06:30;;;;;;;27.30;20.30;;;;;;;16.52;43.77;102181.78;101850;1332;61430;-82
2022/11/14 05:08:55;;;;;;;23.50;17.10;;;;;;;16.54;43.76;102186.15;101959;1334;61287;-82
2022/11/14 05:11:21;;;;;;;24.70;17.20;;;;;;;16.57;43.71;102186.98;101934;1328;61751;-82
2022/11/14 05:13:47;;;;;;;26.60;17.60;;;;;;;16.58;43.80;102191.18;101937;1329;61341;-83
2022/11/14 05:16:12;;;;;;;32.00;17.60;;;;;;;16.61;43.90;102191.84;101926;1333;61257;-83
2022/11/14 05:18:38;;;;;;;26.10;18.30;;;;;;;16.62;43.78;102191.27;101891;1326;61328;-83
2022/11/14 05:21:04;;;;;;;25.20;17.90;;;;;;;16.62;43.86;102191.97;101863;1336;61320;-82
2022/11/14 05:23:29;;;;;;;24.10;16.60;;;;;;;16.62;44.12;102191.97;101821;1335;75697;-83
2022/11/14 05:26:14;;;;;;;25.50;17.60;;;;;;;16.62;44.09;102193.22;101852;1335;61327;-83
2022/11/14 05:28:40;;;;;;;26.70;17.40;;;;;;;16.60;44.14;102192.21;101851;1322;61317;-82
2022/11/14 05:31:07;;;;;;;23.20;17.20;;;;;;;16.58;44.17;102195.48;101808;1322;61728;-82
2022/11/14 05:33:33;;;;;;;25.50;18.10;;;;;;;16.55;44.10;102195.19;101683;1336;61338;-82
2022/11/14 05:36:09;;;;;;;23.60;17.30;;;;;;;16.54;44.15;102198.96;101845;1331;61430;-82
2022/11/14 05:38:36;;;;;;;23.40;16.80;;;;;;;16.54;44.02;102202.17;101845;1332;61237;-83
2022/11/14 05:41:06;;;;;;;23.90;16.60;;;;;;;16.54;44.01;102203.24;101762;1331;73686;-82
2022/11/14 05:43:32;;;;;;;24.10;17.40;;;;;;;16.54;43.87;102204.63;101707;1318;74605;-82
2022/11/14 05:46:02;;;;;;;29.50;17.20;;;;;;;16.54;43.94;102204.27;101833;1316;61235;-82
2022/11/14 05:48:28;;;;;;;23.00;16.50;;;;;;;16.54;43.76;102205.34;101765;1320;60226;-82
2022/11/14 05:50:59;;;;;;;26.80;17.30;;;;;;;16.55;43.90;102203.19;101135;1325;622516;-81
2022/11/14 05:53:24;;;;;;;26.50;18.60;;;;;;;16.55;43.90;102206.74;101763;1326;75045;-81
2022/11/14 05:55:50;;;;;;;29.60;18.90;;;;;;;16.53;43.90;102208.75;101726;1328;59551;-81
2022/11/14 05:58:16;;;;;;;30.40;20.00;;;;;;;16.54;43.99;102211.05;101673;1323;61879;-81
2022/11/14 06:00:41;;;;;;;26.80;15.60;;;;;;;16.51;44.11;102218.60;101807;1323;61314;-81
2022/11/14 06:03:07;;;;;;;46.30;18.60;;;;;;;16.51;44.14;102220.73;101756;1318;61258;-81
2022/11/14 06:05:33;;;;;;;31.70;15.20;;;;;;;16.52;44.22;102216.97;101609;1322;59364;-82
2022/11/14 06:07:59;;;;;;;25.80;14.30;;;;;;;16.54;44.30;102213.54;101712;1322;61477;-80
2022/11/14 06:10:25;;;;;;;59.20;17.20;;;;;;;16.56;44.25;102219.17;101684;1321;61496;-83
2022/11/14 06:12:52;;;;;;;60.10;17.80;;;;;;;16.58;44.35;102217.67;101102;1319;60058;-82
2022/11/14 06:15:17;;;;;;;29.60;13.90;;;;;;;16.61;44.40;102218.85;101275;1321;61316;-83
2022/11/14 06:17:43;;;;;;;41.40;17.30;;;;;;;16.64;44.44;102216.44;101760;1323;61436;-81
2022/11/14 06:20:09;;;;;;;32.50;15.60;;;;;;;16.66;44.45;102217.08;101789;1322;61384;-80
2022/11/14 06:22:34;;;;;;;31.20;16.30;;;;;;;16.69;44.49;102214.50;101560;1321;60171;-80
2022/11/14 06:25:01;;;;;;;32.30;13.60;;;;;;;16.72;44.51;102212.81;101340;1322;72331;-80
2022/11/14 06:27:27;;;;;;;46.80;16.60;;;;;;;16.76;44.44;102214.48;101621;1321;61059;-80
2022/11/14 06:29:53;;;;;;;38.50;16.10;;;;;;;16.80;44.57;102217.02;101210;1321;61638;-83
2022/11/14 06:32:20;;;;;;;30.50;14.10;;;;;;;16.84;44.63;102215.46;101374;1320;61378;-81
2022/11/14 06:34:45;;;;;;;37.00;17.20;;;;;;;16.89;44.77;102217.48;101319;1319;61319;-83
2022/11/14 06:37:11;;;;;;;32.60;14.60;;;;;;;16.94;44.82;102218.05;101510;1320;61453;-81
2022/11/14 06:39:36;;;;;;;30.90;14.20;;;;;;;16.97;44.98;102223.48;101411;1318;61716;-81
2022/11/14 06:42:02;;;;;;;26.00;14.80;;;;;;;17.02;45.07;102221.70;101878;1319;61285;-80
2022/11/14 06:44:27;;;;;;;33.60;15.90;;;;;;;17.07;45.08;102218.18;101767;1318;61220;-81
2022/11/14 06:46:53;;;;;;;36.40;17.00;;;;;;;17.10;45.18;102217.90;101891;1319;61345;-81
2022/11/14 06:49:18;;;;;;;36.80;17.40;;;;;;;17.13;45.25;102218.52;101755;1321;59619;-82
2022/11/14 06:51:44;;;;;;;31.90;14.50;;;;;;;17.14;45.48;102219.91;101735;1324;59444;-82
2022/11/14 06:54:10;;;;;;;27.60;18.80;;;;;;;17.15;45.49;102221.30;101770;1327;61369;-82
2022/11/14 06:56:36;;;;;;;30.40;20.30;;;;;;;17.13;45.53;102220.46;101731;1319;61164;-83
2022/11/14 06:59:01;;;;;;;27.70;17.40;;;;;;;17.09;45.53;102221.83;101676;1324;61316;-81
2022/11/14 07:01:28;;;;;;;26.90;18.40;;;;;;;17.07;45.61;102219.42;101729;1320;59876;-83
2022/11/14 07:03:54;;;;;;;33.20;17.40;;;;;;;17.07;45.77;102221.02;101841;1323;61348;-82
2022/11/14 07:06:24;;;;;;;30.80;18.90;;;;;;;17.07;45.62;102218.88;101893;1319;61386;-82
2022/11/14 07:08:50;;;;;;;31.60;19.40;;;;;;;17.08;45.76;102218.86;102256;1322;72622;-80
2022/11/14 07:11:28;;;;;;;34.00;20.00;;;;;;;17.07;45.70;102213.36;101721;1322;59761;-80
2022/11/14 07:14:03;;;;;;;30.80;21.00;;;;;;;17.06;45.66;102212.32;101844;1323;63005;-80
2022/11/14 07:16:36;;;;;;;31.50;20.30;;;;;;;17.06;45.72;102211.61;101681;1310;60469;-80
2022/11/14 07:19:05;;;;;;;33.60;22.10;;;;;;;17.06;45.76;102212.87;101805;1321;73927;-80
2022/11/14 07:21:32;;;;;;;32.10;22.60;;;;;;;17.05;45.86;102211.84;101661;1322;74666;-80
2022/11/14 07:23:57;;;;;;;31.60;21.80;;;;;;;17.03;45.92;102214.72;102092;1321;61120;-80
2022/11/14 07:26:23;;;;;;;32.10;22.00;;;;;;;17.03;46.11;102213.30;101668;1322;61418;-83
2022/11/14 07:28:49;;;;;;;33.10;22.60;;;;;;;17.03;46.14;102212.42;101649;1319;59706;-80
2022/11/14 07:31:16;;;;;;;41.90;22.50;;;;;;;17.03;46.33;102211.91;101837;1319;61435;-80
2022/11/14 07:33:42;;;;;;;33.80;22.30;;;;;;;17.03;46.37;102207.09;101826;1321;61359;-80
2022/11/14 07:36:08;;;;;;;32.90;22.40;;;;;;;17.03;46.48;102209.21;101671;1319;61327;-80
2022/11/14 07:38:34;;;;;;;34.70;22.20;;;;;;;17.04;46.37;102208.67;101690;1319;61237;-81
2022/11/14 07:41:01;;;;;;;38.10;22.00;;;;;;;17.05;46.49;102205.05;101624;1325;61333;-80
2022/11/14 07:43:27;;;;;;;35.00;22.70;;;;;;;17.06;46.47;102202.17;101976;1321;61332;-81
2022/11/14 07:45:52;;;;;;;39.30;22.00;;;;;;;17.07;46.50;102201.62;101707;1325;60156;-80
2022/11/14 07:48:20;;;;;;;33.70;21.60;;;;;;;17.09;46.58;102200.51;101711;1323;61433;-80
2022/11/14 07:50:46;;;;;;;33.10;20.20;;;;;;;17.10;46.60;102197.27;101748;1319;73814;-81
2022/11/14 07:53:12;;;;;;;37.20;20.80;;;;;;;17.11;46.60;102197.77;101817;1321;59586;-81
2022/11/14 07:55:37;;;;;;;35.20;20.60;;;;;;;17.12;46.64;102194.89;101742;1320;59822;-83
2022/11/14 07:58:03;;;;;;;39.20;21.50;;;;;;;17.11;46.68;102198.48;101813;1323;61337;-82
2022/11/14 08:00:28;;;;;;;39.10;20.00;;;;;;;17.05;46.40;102199.75;101872;1317;61343;-81
2022/11/14 08:02:55;;;;;;;36.70;20.90;;;;;;;16.94;46.46;102196.71;101786;1313;60678;-81
2022/11/14 08:05:21;;;;;;;35.00;22.70;;;;;;;16.88;46.53;102196.86;101101;1315;74457;-80
2022/11/14 08:07:49;;;;;;;38.40;21.70;;;;;;;16.79;46.46;102197.85;101136;1320;61375;-81
2022/11/14 08:10:16;;;;;;;40.40;22.40;;;;;;;16.73;46.48;102198.40;101637;1321;59971;-82
2022/11/14 08:12:42;;;;;;;37.40;22.40;;;;;;;16.68;46.37;102197.30;101744;1321;73690;-82
2022/11/14 08:15:08;;;;;;;44.20;23.50;;;;;;;16.66;46.61;102200.39;101792;1313;59535;-81
2022/11/14 08:17:34;;;;;;;35.00;21.50;;;;;;;16.60;46.44;102200.55;101801;1321;61463;-81
2022/11/14 08:19:59;;;;;;;34.10;20.70;;;;;;;16.62;46.59;102195.88;101720;1325;59621;-80
2022/11/14 08:22:25;;;;;;;37.10;21.20;;;;;;;16.67;46.70;102197.70;101677;1331;62173;-81
2022/11/14 08:24:50;;;;;;;38.40;20.40;;;;;;;16.71;46.90;102195.59;101653;1321;61293;-80
2022/11/14 08:27:16;;;;;;;35.90;20.80;;;;;;;16.76;46.94;102194.04;101886;1320;74413;-80
2022/11/14 08:29:42;;;;;;;34.10;20.70;;;;;;;16.80;46.95;102191.41;101661;1316;59830;-80
2022/11/14 08:32:07;;;;;;;32.90;21.40;;;;;;;16.85;47.10;102191.99;101696;1321;61361;-81
2022/11/14 08:34:33;;;;;;;35.00;21.50;;;;;;;16.88;47.18;102196.86;101685;1322;60098;-80
2022/11/14 08:37:00;;;;;;;39.60;22.30;;;;;;;16.90;47.08;102197.16;101704;1321;61537;-83
2022/11/14 08:39:28;;;;;;;35.80;21.80;;;;;;;16.88;47.13;102196.33;101691;1322;61381;-82
2022/11/14 08:41:54;;;;;;;30.80;20.60;;;;;;;16.85;47.04;102193.03;101646;1328;62211;-81
2022/11/14 08:44:19;;;;;;;33.00;20.60;;;;;;;16.84;47.06;102193.24;101642;1325;61431;-81
2022/11/14 08:46:45;;;;;;;31.80;21.50;;;;;;;16.84;47.11;102192.37;101649;1322;59609;-81
2022/11/14 08:49:10;;;;;;;32.10;19.40;;;;;;;16.83;47.08;102190.26;101800;1323;61374;-81
2022/11/14 08:51:37;;;;;;;29.20;20.50;;;;;;;16.83;47.19;102191.50;101682;1320;60157;-80
2022/11/14 08:54:03;;;;;;;37.50;21.60;;;;;;;16.84;47.24;102188.45;101783;1322;61381;-81
2022/11/14 08:56:28;;;;;;;35.10;22.50;;;;;;;16.83;47.29;102186.34;101652;1320;59410;-81
2022/11/14 08:58:54;;;;;;;36.90;22.70;;;;;;;16.83;47.19;102183.33;101704;1321;61335;-81
2022/11/14 09:01:19;;;;;;;33.50;22.70;;;;;;;16.82;47.15;102181.95;101725;1320;60085;-81
2022/11/14 09:03:45;;;;;;;33.80;23.20;;;;;;;16.80;47.12;102181.99;101816;1322;61392;-81
2022/11/14 09:06:11;;;;;;;28.10;18.10;;;;;;;16.67;46.76;102182.56;101993;1318;59560;-81
2022/11/14 09:08:37;;;;;;;38.20;20.40;;;;;;;16.62;46.89;102181.67;101656;1325;71242;-82
2022/11/14 09:11:34;;;;;;;41.60;22.30;;;;;;;16.55;46.95;102180.30;101672;1320;73433;-83
2022/11/14 09:14:01;;;;;;;31.90;20.80;;;;;;;16.53;47.11;102177.11;101511;1326;59276;-82
2022/11/14 09:16:27;;;;;;;36.30;21.20;;;;;;;16.55;47.13;102177.94;101293;1325;61241;-82
2022/11/14 09:18:53;;;;;;;33.30;21.20;;;;;;;16.59;47.23;102171.09;101457;1319;60877;-82
2022/11/14 09:21:18;;;;;;;35.60;22.20;;;;;;;16.61;47.29;102168.36;101398;1326;61485;-81
2022/11/14 09:23:48;;;;;;;37.00;21.00;;;;;;;16.61;47.28;102164.27;101544;1325;61339;-81
2022/11/14 09:26:13;;;;;;;35.50;21.80;;;;;;;16.63;47.24;102163.49;101456;1328;60366;-81
2022/11/14 09:28:39;;;;;;;33.00;22.20;;;;;;;16.62;47.29;102157.84;101379;1321;61356;-81
2022/11/14 09:31:07;;;;;;;33.80;20.50;;;;;;;16.56;47.21;102154.12;101526;1325;61344;-80
2022/11/14 09:33:33;;;;;;;36.00;21.20;;;;;;;16.57;47.27;102153.03;101530;1325;61362;-81
2022/11/14 09:36:04;;;;;;;35.00;21.10;;;;;;;16.61;47.43;102150.06;101475;1324;62822;-81
2022/11/14 09:38:31;;;;;;;37.00;21.70;;;;;;;16.65;47.46;102148.69;101465;1329;71985;-81
2022/11/14 09:41:15;;;;;;;37.50;20.70;;;;;;;16.69;47.38;102145.36;101504;1326;61244;-81
2022/11/14 09:43:46;;;;;;;38.20;22.00;;;;;;;16.73;47.34;102145.40;101566;1326;61182;-81
2022/11/14 09:46:26;;;;;;;36.90;21.90;;;;;;;16.69;47.23;102139.65;101528;1326;61271;-80
2022/11/14 09:48:52;;;;;;;36.00;21.30;;;;;;;16.49;47.20;102140.28;101669;1325;72824;-81
2022/11/14 09:51:32;;;;;;;43.70;22.00;;;;;;;16.45;47.27;102141.83;101677;1320;61973;-83
2022/11/14 09:54:10;;;;;;;36.60;18.10;;;;;;;16.46;47.28;102137.70;101718;1322;61091;-82
2022/11/14 09:56:35;;;;;;;33.80;19.90;;;;;;;16.48;47.52;102136.42;101748;1316;61791;-81
2022/11/14 09:59:01;;;;;;;42.40;19.10;;;;;;;16.50;47.65;102135.11;101767;1318;60482;-81
2022/11/14 10:01:34;;;;;;;34.40;19.50;;;;;;;16.52;47.89;102132.36;101705;1320;61133;-83
2022/11/14 10:04:43;;;;;;;32.60;21.50;;;;;;;16.53;47.87;102133.58;101793;1320;60165;-82
2022/11/14 10:07:21;;;;;;;;;;;;;;;16.37;47.49;102126.98;101794;1319;61045;-81
2022/11/14 10:10:19;;;;;;;36.40;19.60;;;;;;;16.24;47.84;102121.31;101838;1312;73565;-80
2022/11/14 10:13:05;;;;;;;39.80;20.60;;;;;;;16.19;47.65;102116.15;101861;1320;74874;-81
2022/11/14 10:15:40;;;;;;;33.30;21.50;;;;;;;16.16;47.73;102113.19;101924;1322;61345;-81
2022/11/14 10:18:09;;;;;;;37.70;20.70;;;;;;;15.97;47.55;102109.13;101925;1316;61118;-81
2022/11/14 10:20:40;;;;;;;35.20;20.40;;;;;;;15.74;47.63;102108.85;101957;1320;72634;-81
2022/11/14 10:23:44;;;;;;;35.10;19.10;;;;;;;15.75;47.97;102099.59;101779;1318;74689;-81
2022/11/14 10:26:23;;;;;;;37.80;20.90;;;;;;;15.87;48.04;102098.77;101799;1319;61302;-80
2022/11/14 10:29:04;;;;;;;34.90;19.70;;;;;;;15.93;48.10;102098.05;102332;1323;61138;-80
2022/11/14 10:31:35;;;;;;;35.40;20.90;;;;;;;16.04;48.30;102098.81;101932;1316;72784;-80
2022/11/14 10:34:07;;;;;;;45.50;20.80;;;;;;;16.14;48.35;102097.98;101920;1314;74245;-81
2022/11/14 10:37:03;;;;;;;37.00;19.90;;;;;;;16.25;48.37;102093.23;101880;1322;60236;-81
2022/11/14 10:39:55;;;;;;;33.20;19.20;;;;;;;16.35;48.34;102090.23;101881;1323;60463;-81
2022/11/14 10:42:37;;;;;;;33.10;19.90;;;;;;;16.45;48.37;102093.88;101820;1322;72624;-81
2022/11/14 10:45:09;;;;;;;32.50;19.80;;;;;;;16.51;48.23;102086.02;101670;1320;73310;-80
2022/11/14 10:47:38;;;;;;;37.70;19.60;;;;;;;16.56;48.10;102081.07;101786;1319;59467;-81
2022/11/14 10:50:18;;;;;;;32.40;19.10;;;;;;;16.59;48.01;102080.42;101782;1315;61832;-81
2022/11/14 10:52:44;;;;;;;40.80;20.90;;;;;;;16.61;48.07;102077.88;101861;1323;72725;-82
2022/11/14 10:55:17;;;;;;;34.50;19.20;;;;;;;16.60;47.85;102078.27;101821;1311;59288;-81
2022/11/14 10:57:44;;;;;;;30.00;17.60;;;;;;;16.62;48.04;102077.86;101657;1323;60118;-81
2022/11/14 11:00:18;;;;;;;35.50;20.50;;;;;;;16.65;48.12;102075.09;101798;1313;60675;-82
2022/11/14 11:02:54;;;;;;;34.50;20.00;;;;;;;16.61;48.02;102073.98;101861;1322;73618;-82
2022/11/14 11:05:22;;;;;;;40.80;19.50;;;;;;;16.58;48.05;102072.30;101834;1322;76053;-81